sensor_id;sensor_type;location;lat;lon;timestamp;pressure;altitude;pressure_sealevel;temperature;humidity
12172;BME280;6149;52.418;13.668;2024-03-02T00:00:44;100133.94;;;6.79;100.00
12172;BME280;6149;52.418;13.668;2024-03-02T00:03:11;100131.31;;;6.79;100.00
12172;BME280;6149;52.418;13.668;2024-03-02T00:05:39;100131.31;;;6.79;100.00
12172;BME280;6149;52.418;13.668;2024-03-02T00:08:06;100131.22;;;6.81;100.00
12172;BME280;6149;52.418;13.668;2024-03-02T00:10:38;100130.38;;;6.80;100.00
12172;BME280;6149;52.418;13.668;2024-03-02T00:13:06;100126.91;;;6.80;100.00
12172;BME280;6149;52.418;13.668;2024-03-02T00:15:51;100127.81;;;6.79;100.00
12172;BME280;6149;52.418;13.668;2024-03-02T00:18:19;100121.72;;;6.78;100.00
12172;BME280;6149;52.418;13.668;2024-03-02T00:20:47;100116.47;;;6.78;100.00
12172;BME280;6149;52.418;13.668;2024-03-02T00:23:15;100113.84;;;6.78;100.00
12172;BME280;6149;52.418;13.668;2024-03-02T00:25:47;100110.34;;;6.78;100.00
12172;BME280;6149;52.418;13.668;2024-03-02T00:28:17;100119.94;;;6.79;100.00
12172;BME280;6149;52.418;13.668;2024-03-02T00:30:55;100118.22;;;6.78;100.00
12172;BME280;6149;52.418;13.668;2024-03-02T00:33:25;100111.19;;;6.78;100.00
12172;BME280;6149;52.418;13.668;2024-03-02T00:35:53;100105.09;;;6.78;100.00
12172;BME280;6149;52.418;13.668;2024-03-02T00:38:20;100104.25;;;6.77;100.00
12172;BME280;6149;52.418;13.668;2024-03-02T00:40:49;100112.97;;;6.78;100.00
12172;BME280;6149;52.418;13.668;2024-03-02T00:43:38;100109.44;;;6.79;100.00
12172;BME280;6149;52.418;13.668;2024-03-02T00:46:09;100115.53;;;6.79;100.00
12172;BME280;6149;52.418;13.668;2024-03-02T00:48:37;100114.63;;;6.80;100.00
12172;BME280;6149;52.418;13.668;2024-03-02T00:51:05;100112.91;;;6.79;100.00
12172;BME280;6149;52.418;13.668;2024-03-02T00:53:32;100115.47;;;6.81;100.00
12172;BME280;6149;52.418;13.668;2024-03-02T00:56:01;100123.28;;;6.82;100.00
12172;BME280;6149;52.418;13.668;2024-03-02T00:58:27;100111.91;;;6.82;100.00
12172;BME280;6149;52.418;13.668;2024-03-02T01:00:54;100106.66;;;6.82;100.00
12172;BME280;6149;52.418;13.668;2024-03-02T01:03:21;100107.50;;;6.82;100.00
12172;BME280;6149;52.418;13.668;2024-03-02T01:05:47;100116.25;;;6.83;100.00
12172;BME280;6149;52.418;13.668;2024-03-02T01:08:14;100110.94;;;6.84;100.00
12172;BME280;6149;52.418;13.668;2024-03-02T01:10:41;100105.59;;;6.86;100.00
12172;BME280;6149;52.418;13.668;2024-03-02T01:13:10;100101.97;;;6.88;100.00
12172;BME280;6149;52.418;13.668;2024-03-02T01:15:37;100110.78;;;6.87;100.00
12172;BME280;6149;52.418;13.668;2024-03-02T01:18:04;100101.13;;;6.88;100.00
12172;BME280;6149;52.418;13.668;2024-03-02T01:20:31;100103.69;;;6.89;100.00
12172;BME280;6149;52.418;13.668;2024-03-02T01:22:57;100102.84;;;6.89;100.00
12172;BME280;6149;52.418;13.668;2024-03-02T01:25:26;100107.16;;;6.90;100.00
12172;BME280;6149;52.418;13.668;2024-03-02T01:27:52;100100.13;;;6.90;100.00
12172;BME280;6149;52.418;13.668;2024-03-02T01:30:20;100088.72;;;6.91;100.00
12172;BME280;6149;52.418;13.668;2024-03-02T01:32:47;100083.44;;;6.91;100.00
12172;BME280;6149;52.418;13.668;2024-03-02T01:35:13;100079.91;;;6.92;100.00
12172;BME280;6149;52.418;13.668;2024-03-02T01:37:41;100080.69;;;6.94;100.00
12172;BME280;6149;52.418;13.668;2024-03-02T01:40:08;100071.09;;;6.93;100.00
12172;BME280;6149;52.418;13.668;2024-03-02T01:42:36;100078.06;;;6.94;100.00
12172;BME280;6149;52.418;13.668;2024-03-02T01:45:04;100071.88;;;6.95;100.00
12172;BME280;6149;52.418;13.668;2024-03-02T01:47:34;100068.31;;;6.96;100.00
12172;BME280;6149;52.418;13.668;2024-03-02T01:50:01;100064.78;;;6.97;100.00
12172;BME280;6149;52.418;13.668;2024-03-02T01:52:27;100070.03;;;6.97;100.00
12172;BME280;6149;52.418;13.668;2024-03-02T01:54:54;100063.78;;;7.00;100.00
12172;BME280;6149;52.418;13.668;2024-03-02T01:57:21;100061.16;;;7.00;100.00
12172;BME280;6149;52.418;13.668;2024-03-02T01:59:48;100053.25;;;7.00;100.00
12172;BME280;6149;52.418;13.668;2024-03-02T02:02:16;100062.91;;;6.99;100.00
12172;BME280;6149;52.418;13.668;2024-03-02T02:04:43;100062.84;;;7.01;100.00
12172;BME280;6149;52.418;13.668;2024-03-02T02:07:10;100050.56;;;7.01;100.00
12172;BME280;6149;52.418;13.668;2024-03-02T02:09:36;100060.09;;;7.04;100.00
12172;BME280;6149;52.418;13.668;2024-03-02T02:12:04;100059.22;;;7.03;100.00
12172;BME280;6149;52.418;13.668;2024-03-02T02:14:32;100058.19;;;7.06;100.00
12172;BME280;6149;52.418;13.668;2024-03-02T02:16:58;100061.69;;;7.07;100.00
12172;BME280;6149;52.418;13.668;2024-03-02T02:19:25;100066.00;;;7.08;100.00
12172;BME280;6149;52.418;13.668;2024-03-02T02:21:53;100062.47;;;7.09;100.00
12172;BME280;6149;52.418;13.668;2024-03-02T02:24:20;100064.03;;;7.13;100.00
12172;BME280;6149;52.418;13.668;2024-03-02T02:26:47;100060.47;;;7.14;100.00
12172;BME280;6149;52.418;13.668;2024-03-02T02:29:13;100062.19;;;7.15;100.00
12172;BME280;6149;52.418;13.668;2024-03-02T02:31:41;100064.66;;;7.18;100.00
12172;BME280;6149;52.418;13.668;2024-03-02T02:34:08;100056.63;;;7.21;100.00
12172;BME280;6149;52.418;13.668;2024-03-02T02:36:37;100050.44;;;7.22;100.00
12172;BME280;6149;52.418;13.668;2024-03-02T02:39:08;100061.75;;;7.24;100.00
12172;BME280;6149;52.418;13.668;2024-03-02T02:41:37;100059.88;;;7.26;100.00
12172;BME280;6149;52.418;13.668;2024-03-02T02:44:04;100058.97;;;7.27;100.00
12172;BME280;6149;52.418;13.668;2024-03-02T02:46:30;100056.25;;;7.28;100.00
12172;BME280;6149;52.418;13.668;2024-03-02T02:48:57;100056.97;;;7.32;100.00
12172;BME280;6149;52.418;13.668;2024-03-02T02:51:24;100054.13;;;7.36;100.00
12172;BME280;6149;52.418;13.668;2024-03-02T02:53:51;100054.03;;;7.38;100.00
12172;BME280;6149;52.418;13.668;2024-03-02T02:56:19;100061.00;;;7.39;100.00
12172;BME280;6149;52.418;13.668;2024-03-02T02:58:46;100057.47;;;7.40;100.00
12172;BME280;6149;52.418;13.668;2024-03-02T03:01:12;100053.78;;;7.43;100.00
12172;BME280;6149;52.418;13.668;2024-03-02T03:03:39;100057.13;;;7.46;100.00
12172;BME280;6149;52.418;13.668;2024-03-02T03:06:06;100053.50;;;7.49;100.00
12172;BME280;6149;52.418;13.668;2024-03-02T03:08:32;100044.53;;;7.53;100.00
12172;BME280;6149;52.418;13.668;2024-03-02T03:10:59;100050.56;;;7.55;100.00
12172;BME280;6149;52.418;13.668;2024-03-02T03:13:27;100050.41;;;7.58;100.00
12172;BME280;6149;52.418;13.668;2024-03-02T03:15:53;100044.31;;;7.57;100.00
12172;BME280;6149;52.418;13.668;2024-03-02T03:18:20;100039.91;;;7.58;100.00
12172;BME280;6149;52.418;13.668;2024-03-02T03:20:47;100050.28;;;7.61;100.00
12172;BME280;6149;52.418;13.668;2024-03-02T03:23:13;100052.03;;;7.60;100.00
12172;BME280;6149;52.418;13.668;2024-03-02T03:25:41;100049.34;;;7.62;100.00
12172;BME280;6149;52.418;13.668;2024-03-02T03:28:08;100039.75;;;7.61;100.00
12172;BME280;6149;52.418;13.668;2024-03-02T03:30:37;100044.94;;;7.62;100.00
12172;BME280;6149;52.418;13.668;2024-03-02T03:33:05;100040.44;;;7.64;100.00
12172;BME280;6149;52.418;13.668;2024-03-02T03:35:32;100042.22;;;7.64;100.00
12172;BME280;6149;52.418;13.668;2024-03-02T03:38:00;100047.56;;;7.62;100.00
12172;BME280;6149;52.418;13.668;2024-03-02T03:40:27;100051.97;;;7.62;100.00
12172;BME280;6149;52.418;13.668;2024-03-02T03:42:53;100051.97;;;7.62;100.00
12172;BME280;6149;52.418;13.668;2024-03-02T03:45:21;100052.81;;;7.62;100.00
12172;BME280;6149;52.418;13.668;2024-03-02T03:47:51;100051.91;;;7.63;100.00
12172;BME280;6149;52.418;13.668;2024-03-02T03:50:18;100059.78;;;7.63;100.00
12172;BME280;6149;52.418;13.668;2024-03-02T03:52:45;100058.88;;;7.64;100.00
12172;BME280;6149;52.418;13.668;2024-03-02T03:55:11;100051.97;;;7.62;100.00
12172;BME280;6149;52.418;13.668;2024-03-02T03:57:38;100051.97;;;7.62;100.00
12172;BME280;6149;52.418;13.668;2024-03-02T04:00:06;100052.81;;;7.62;100.00
12172;BME280;6149;52.418;13.668;2024-03-02T04:02:35;100057.22;;;7.62;100.00
12172;BME280;6149;52.418;13.668;2024-03-02T04:05:03;100058.09;;;7.62;100.00
12172;BME280;6149;52.418;13.668;2024-03-02T04:07:34;100060.72;;;7.62;100.00
12172;BME280;6149;52.418;13.668;2024-03-02T04:10:06;100057.09;;;7.65;100.00
12172;BME280;6149;52.418;13.668;2024-03-02T04:12:35;100056.22;;;7.64;100.00
12172;BME280;6149;52.418;13.668;2024-03-02T04:15:04;100056.22;;;7.64;100.00
12172;BME280;6149;52.418;13.668;2024-03-02T04:17:32;100054.59;;;7.62;100.00
12172;BME280;6149;52.418;13.668;2024-03-02T04:20:02;100051.03;;;7.63;100.00
12172;BME280;6149;52.418;13.668;2024-03-02T04:22:30;100051.97;;;7.62;100.00
12172;BME280;6149;52.418;13.668;2024-03-02T04:24:59;100043.22;;;7.61;100.00
12172;BME280;6149;52.418;13.668;2024-03-02T04:27:26;100049.34;;;7.62;100.00
12172;BME280;6149;52.418;13.668;2024-03-02T04:29:52;100053.69;;;7.63;100.00
12172;BME280;6149;52.418;13.668;2024-03-02T04:32:19;100049.25;;;7.63;100.00
12172;BME280;6149;52.418;13.668;2024-03-02T04:34:45;100060.56;;;7.65;100.00
12172;BME280;6149;52.418;13.668;2024-03-02T04:37:13;100057.00;;;7.66;100.00
12172;BME280;6149;52.418;13.668;2024-03-02T04:39:40;100065.75;;;7.67;100.00
12172;BME280;6149;52.418;13.668;2024-03-02T04:42:07;100064.91;;;7.66;100.00
12172;BME280;6149;52.418;13.668;2024-03-02T04:44:33;100069.25;;;7.67;100.00
12172;BME280;6149;52.418;13.668;2024-03-02T04:47:00;100063.06;;;7.68;100.00
12172;BME280;6149;52.418;13.668;2024-03-02T04:49:26;100063.97;;;7.67;100.00
12172;BME280;6149;52.418;13.668;2024-03-02T04:51:53;100065.75;;;7.67;100.00
12172;BME280;6149;52.418;13.668;2024-03-02T04:54:21;100064.91;;;7.66;100.00
12172;BME280;6149;52.418;13.668;2024-03-02T04:56:47;100071.00;;;7.67;100.00
12172;BME280;6149;52.418;13.668;2024-03-02T04:59:15;100072.78;;;7.66;100.00
12172;BME280;6149;52.418;13.668;2024-03-02T05:01:42;100086.81;;;7.67;100.00
12172;BME280;6149;52.418;13.668;2024-03-02T05:04:08;100089.38;;;7.68;100.00
12172;BME280;6149;52.418;13.668;2024-03-02T05:06:40;100086.66;;;7.70;100.00
12172;BME280;6149;52.418;13.668;2024-03-02T05:09:07;100090.06;;;7.72;100.00
12172;BME280;6149;52.418;13.668;2024-03-02T05:11:35;100093.47;;;7.74;100.00
12172;BME280;6149;52.418;13.668;2024-03-02T05:14:24;100097.72;;;7.77;100.00
12172;BME280;6149;52.418;13.668;2024-03-02T05:16:50;100094.19;;;7.78;100.00
12172;BME280;6149;52.418;13.668;2024-03-02T05:19:17;100098.31;;;7.82;100.00
12172;BME280;6149;52.418;13.668;2024-03-02T05:21:43;100106.16;;;7.83;100.00
12172;BME280;6149;52.418;13.668;2024-03-02T05:24:10;100103.06;;;7.92;100.00
12172;BME280;6149;52.418;13.668;2024-03-02T05:26:38;100104.75;;;7.93;100.00
12172;BME280;6149;52.418;13.668;2024-03-02T05:29:04;100109.88;;;7.96;100.00
12172;BME280;6149;52.418;13.668;2024-03-02T05:31:34;100099.34;;;7.96;100.00
12172;BME280;6149;52.418;13.668;2024-03-02T05:34:00;100097.50;;;7.98;100.00
12172;BME280;6149;52.418;13.668;2024-03-02T05:36:28;100108.72;;;8.02;100.00
12172;BME280;6149;52.418;13.668;2024-03-02T05:38:54;100114.47;;;8.10;100.00
12172;BME280;6149;52.418;13.668;2024-03-02T05:41:21;100113.69;;;8.08;100.00
12172;BME280;6149;52.418;13.668;2024-03-02T05:43:49;100118.72;;;8.13;100.00
12172;BME280;6149;52.418;13.668;2024-03-02T05:46:16;100118.56;;;8.16;100.00
12172;BME280;6149;52.418;13.668;2024-03-02T05:48:42;100118.47;;;8.17;100.00
12172;BME280;6149;52.418;13.668;2024-03-02T05:51:09;100121.00;;;8.19;100.00
12172;BME280;6149;52.418;13.668;2024-03-02T05:53:35;100122.72;;;8.20;100.00
12172;BME280;6149;52.418;13.668;2024-03-02T05:56:04;100128.84;;;8.20;100.00
12172;BME280;6149;52.418;13.668;2024-03-02T05:58:31;100136.81;;;8.19;100.00
12172;BME280;6149;52.418;13.668;2024-03-02T06:01:12;100127.13;;;8.19;100.00
12172;BME280;6149;52.418;13.668;2024-03-02T06:03:39;100124.44;;;8.21;100.00
12172;BME280;6149;52.418;13.668;2024-03-02T06:06:05;100121.78;;;8.21;100.00
12172;BME280;6149;52.418;13.668;2024-03-02T06:08:33;100122.66;;;8.21;100.00
12172;BME280;6149;52.418;13.668;2024-03-02T06:11:00;100121.72;;;8.22;100.00
12172;BME280;6149;52.418;13.668;2024-03-02T06:13:27;100128.75;;;8.22;100.00
12172;BME280;6149;52.418;13.668;2024-03-02T06:15:53;100124.44;;;8.21;100.00
12172;BME280;6149;52.418;13.668;2024-03-02T06:18:21;100128.84;;;8.20;100.00
12172;BME280;6149;52.418;13.668;2024-03-02T06:20:48;100125.28;;;8.21;100.00
12172;BME280;6149;52.418;13.668;2024-03-02T06:23:15;100128.84;;;8.20;100.00
12172;BME280;6149;52.418;13.668;2024-03-02T06:25:41;100140.91;;;8.24;100.00
12172;BME280;6149;52.418;13.668;2024-03-02T06:28:08;100139.16;;;8.25;100.00
12172;BME280;6149;52.418;13.668;2024-03-02T06:30:34;100147.03;;;8.25;100.00
12172;BME280;6149;52.418;13.668;2024-03-02T06:33:01;100147.03;;;8.25;100.00
12172;BME280;6149;52.418;13.668;2024-03-02T06:35:30;100147.91;;;8.25;100.00
12172;BME280;6149;52.418;13.668;2024-03-02T06:37:57;100142.63;;;8.25;100.00
12172;BME280;6149;52.418;13.668;2024-03-02T06:40:23;100149.59;;;8.26;100.00
12172;BME280;6149;52.418;13.668;2024-03-02T06:42:50;100148.66;;;8.27;100.00
12172;BME280;6149;52.418;13.668;2024-03-02T06:45:17;100147.75;;;8.28;100.00
12172;BME280;6149;52.418;13.668;2024-03-02T06:47:43;100150.31;;;8.30;100.00
12172;BME280;6149;52.418;13.668;2024-03-02T06:50:10;100152.84;;;8.31;100.00
12172;BME280;6149;52.418;13.668;2024-03-02T06:52:38;100156.41;;;8.30;100.00
12172;BME280;6149;52.418;13.668;2024-03-02T06:55:06;100157.22;;;8.32;100.00
12172;BME280;6149;52.418;13.668;2024-03-02T06:57:32;100158.94;;;8.33;100.00
12172;BME280;6149;52.418;13.668;2024-03-02T06:59:59;100162.13;;;8.40;100.00
12172;BME280;6149;52.418;13.668;2024-03-02T07:02:25;100162.13;;;8.40;100.00
12172;BME280;6149;52.418;13.668;2024-03-02T07:04:53;100164.81;;;8.38;100.00
12172;BME280;6149;52.418;13.668;2024-03-02T07:07:20;100170.88;;;8.41;100.00
12172;BME280;6149;52.418;13.668;2024-03-02T07:09:47;100175.22;;;8.42;100.00
12172;BME280;6149;52.418;13.668;2024-03-02T07:12:14;100171.72;;;8.41;100.00
12172;BME280;6149;52.418;13.668;2024-03-02T07:14:40;100169.00;;;8.43;100.00
12172;BME280;6149;52.418;13.668;2024-03-02T07:17:39;100167.16;;;8.45;100.00
12172;BME280;6149;52.418;13.668;2024-03-02T07:20:06;100180.41;;;8.43;100.00
12172;BME280;6149;52.418;13.668;2024-03-02T07:22:33;100184.81;;;8.43;100.00
12172;BME280;6149;52.418;13.668;2024-03-02T07:25:01;100184.81;;;8.43;100.00
12172;BME280;6149;52.418;13.668;2024-03-02T07:27:28;100186.59;;;8.42;100.00
12172;BME280;6149;52.418;13.668;2024-03-02T07:29:54;100189.16;;;8.44;100.00
12172;BME280;6149;52.418;13.668;2024-03-02T07:32:21;100189.94;;;8.46;100.00
12172;BME280;6149;52.418;13.668;2024-03-02T07:34:47;100195.97;;;8.48;100.00
12172;BME280;6149;52.418;13.668;2024-03-02T07:37:16;100203.97;;;8.46;100.00
12172;BME280;6149;52.418;13.668;2024-03-02T07:39:47;100200.38;;;8.47;100.00
12172;BME280;6149;52.418;13.668;2024-03-02T07:42:15;100208.22;;;8.49;100.00
12172;BME280;6149;52.418;13.668;2024-03-02T07:44:43;100208.22;;;8.49;100.00
12172;BME280;6149;52.418;13.668;2024-03-02T07:47:10;100209.94;;;8.50;100.00
12172;BME280;6149;52.418;13.668;2024-03-02T07:49:36;100217.84;;;8.50;100.00
12172;BME280;6149;52.418;13.668;2024-03-02T07:52:03;100211.63;;;8.51;100.00
12172;BME280;6149;52.418;13.668;2024-03-02T07:54:30;100222.16;;;8.51;100.00
12172;BME280;6149;52.418;13.668;2024-03-02T07:56:59;100226.31;;;8.55;100.00
12172;BME280;6149;52.418;13.668;2024-03-02T07:59:27;100222.53;;;8.60;100.00
12172;BME280;6149;52.418;13.668;2024-03-02T08:01:54;100224.94;;;8.65;100.00
12172;BME280;6149;52.418;13.668;2024-03-02T08:04:21;100222.91;;;8.70;100.00
12172;BME280;6149;52.418;13.668;2024-03-02T08:06:48;100223.38;;;8.78;100.00
12172;BME280;6149;52.418;13.668;2024-03-02T08:09:15;100226.63;;;8.83;100.00
12172;BME280;6149;52.418;13.668;2024-03-02T08:11:41;100226.97;;;8.93;100.00
12172;BME280;6149;52.418;13.668;2024-03-02T08:14:08;100233.53;;;8.86;100.00
12172;BME280;6149;52.418;13.668;2024-03-02T08:16:35;100232.69;;;8.85;100.00
12172;BME280;6149;52.418;13.668;2024-03-02T08:19:02;100231.50;;;8.91;100.00
12172;BME280;6149;52.418;13.668;2024-03-02T08:21:29;100233.19;;;8.92;100.00
12172;BME280;6149;52.418;13.668;2024-03-02T08:23:57;100243.06;;;8.88;100.00
12172;BME280;6149;52.418;13.668;2024-03-02T08:26:24;100235.94;;;8.90;100.00
12172;BME280;6149;52.418;13.668;2024-03-02T08:28:50;100245.44;;;8.93;100.00
12172;BME280;6149;52.418;13.668;2024-03-02T08:31:17;100252.69;;;8.89;100.00
12172;BME280;6149;52.418;13.668;2024-03-02T08:33:45;100257.88;;;8.91;100.00
12172;BME280;6149;52.418;13.668;2024-03-02T08:36:11;100259.75;;;8.89;100.00
12172;BME280;6149;52.418;13.668;2024-03-02T08:38:38;100263.22;;;8.89;100.00
12172;BME280;6149;52.418;13.668;2024-03-02T08:41:05;100266.72;;;8.90;100.00
12172;BME280;6149;52.418;13.668;2024-03-02T08:43:32;100265.00;;;8.89;100.00
12172;BME280;6149;52.418;13.668;2024-03-02T08:45:59;100262.38;;;8.89;100.00
12172;BME280;6149;52.418;13.668;2024-03-02T08:48:25;100258.84;;;9.05;100.00
12172;BME280;6149;52.418;13.668;2024-03-02T08:50:53;100264.59;;;8.96;100.00
12172;BME280;6149;52.418;13.668;2024-03-02T08:53:20;100273.34;;;8.97;100.00
12172;BME280;6149;52.418;13.668;2024-03-02T08:55:47;100268.16;;;8.95;100.00
12172;BME280;6149;52.418;13.668;2024-03-02T08:58:13;100275.91;;;8.98;100.00
12172;BME280;6149;52.418;13.668;2024-03-02T09:00:40;100277.47;;;9.02;100.00
12172;BME280;6149;52.418;13.668;2024-03-02T09:03:07;100279.31;;;9.00;100.00
12172;BME280;6149;52.418;13.668;2024-03-02T09:05:33;100283.75;;;9.00;100.00
12172;BME280;6149;52.418;13.668;2024-03-02T09:08:01;100288.16;;;8.99;100.00
12172;BME280;6149;52.418;13.668;2024-03-02T09:10:29;100279.31;;;9.00;100.00
12172;BME280;6149;52.418;13.668;2024-03-02T09:12:55;100282.59;;;9.05;100.00
12172;BME280;6149;52.418;13.668;2024-03-02T09:15:22;100289.63;;;9.05;100.00
12172;BME280;6149;52.418;13.668;2024-03-02T09:17:49;100284.28;;;9.07;100.00
12172;BME280;6149;52.418;13.668;2024-03-02T09:20:16;100283.91;;;9.14;100.00
12172;BME280;6149;52.418;13.668;2024-03-02T09:22:42;100283.41;;;9.23;100.00
12172;BME280;6149;52.418;13.668;2024-03-02T09:25:10;100286.41;;;9.33;100.00
12172;BME280;6149;52.418;13.668;2024-03-02T09:27:37;100279.09;;;9.38;100.00
12172;BME280;6149;52.418;13.668;2024-03-02T09:30:04;100292.22;;;9.39;100.00
12172;BME280;6149;52.418;13.668;2024-03-02T09:32:33;100289.31;;;9.44;100.00
12172;BME280;6149;52.418;13.668;2024-03-02T09:34:59;100299.81;;;9.46;100.00
12172;BME280;6149;52.418;13.668;2024-03-02T09:37:26;100304.84;;;9.50;100.00
12172;BME280;6149;52.418;13.668;2024-03-02T09:39:54;100309.72;;;9.58;100.00
12172;BME280;6149;52.418;13.668;2024-03-02T09:42:22;100304.53;;;9.72;100.00
12172;BME280;6149;52.418;13.668;2024-03-02T09:44:49;100309.66;;;9.91;100.00
12172;BME280;6149;52.418;13.668;2024-03-02T09:47:16;100314.94;;;10.06;100.00
12172;BME280;6149;52.418;13.668;2024-03-02T09:49:42;100323.19;;;10.16;100.00
12172;BME280;6149;52.418;13.668;2024-03-02T09:52:10;100322.44;;;10.14;100.00
12172;BME280;6149;52.418;13.668;2024-03-02T09:54:37;100330.28;;;10.16;100.00
12172;BME280;6149;52.418;13.668;2024-03-02T09:57:04;100330.63;;;10.41;100.00
12172;BME280;6149;52.418;13.668;2024-03-02T09:59:32;100334.66;;;10.32;100.00
12172;BME280;6149;52.418;13.668;2024-03-02T10:02:00;100335.25;;;10.37;100.00
12172;BME280;6149;52.418;13.668;2024-03-02T10:04:32;100340.84;;;10.47;100.00
12172;BME280;6149;52.418;13.668;2024-03-02T10:07:14;100338.97;;;10.49;100.00
12172;BME280;6149;52.418;13.668;2024-03-02T10:09:42;100339.66;;;10.53;100.00
12172;BME280;6149;52.418;13.668;2024-03-02T10:12:10;100338.53;;;10.73;100.00
12172;BME280;6149;52.418;13.668;2024-03-02T10:14:40;100334.00;;;10.59;100.00
12172;BME280;6149;52.418;13.668;2024-03-02T10:17:07;100329.66;;;10.58;100.00
12172;BME280;6149;52.418;13.668;2024-03-02T10:19:35;100334.78;;;10.61;100.00
12172;BME280;6149;52.418;13.668;2024-03-02T10:22:03;100346.03;;;10.64;100.00
12172;BME280;6149;52.418;13.668;2024-03-02T10:24:38;100341.06;;;10.74;100.00
12172;BME280;6149;52.418;13.668;2024-03-02T10:27:07;100345.22;;;10.78;100.00
12172;BME280;6149;52.418;13.668;2024-03-02T10:29:40;100338.47;;;10.88;100.00
12172;BME280;6149;52.418;13.668;2024-03-02T10:32:08;100341.50;;;10.96;100.00
12172;BME280;6149;52.418;13.668;2024-03-02T10:34:36;100342.41;;;11.11;100.00
12172;BME280;6149;52.418;13.668;2024-03-02T10:37:03;100343.44;;;11.09;100.00
12172;BME280;6149;52.418;13.668;2024-03-02T10:39:30;100341.25;;;11.15;100.00
12172;BME280;6149;52.418;13.668;2024-03-02T10:41:58;100347.97;;;11.21;100.00
12172;BME280;6149;52.418;13.668;2024-03-02T10:44:25;100339.00;;;11.09;100.00
12172;BME280;6149;52.418;13.668;2024-03-02T10:46:55;100328.50;;;11.22;100.00
12172;BME280;6149;52.418;13.668;2024-03-02T10:49:23;100329.19;;;11.25;100.00
12172;BME280;6149;52.418;13.668;2024-03-02T10:51:50;100319.06;;;11.32;100.00
12172;BME280;6149;52.418;13.668;2024-03-02T10:54:17;100329.97;;;11.42;100.00
12172;BME280;6149;52.418;13.668;2024-03-02T10:56:51;100317.00;;;11.51;100.00
12172;BME280;6149;52.418;13.668;2024-03-02T10:59:26;100319.63;;;11.51;100.00
12172;BME280;6149;52.418;13.668;2024-03-02T11:01:56;100320.78;;;11.61;100.00
12172;BME280;6149;52.418;13.668;2024-03-02T11:04:26;100320.97;;;11.72;100.00
12172;BME280;6149;52.418;13.668;2024-03-02T11:06:58;100324.03;;;11.81;100.00
12172;BME280;6149;52.418;13.668;2024-03-02T11:09:27;100325.03;;;11.92;100.00
12172;BME280;6149;52.418;13.668;2024-03-02T11:12:00;100337.22;;;12.09;100.00
12172;BME280;6149;52.418;13.668;2024-03-02T11:14:30;100333.81;;;12.07;100.00
12172;BME280;6149;52.418;13.668;2024-03-02T11:17:01;100333.25;;;12.16;100.00
12172;BME280;6149;52.418;13.668;2024-03-02T11:19:31;100322.78;;;12.27;100.00
12172;BME280;6149;52.418;13.668;2024-03-02T11:21:58;100324.94;;;12.35;100.00
12172;BME280;6149;52.418;13.668;2024-03-02T11:24:30;100319.91;;;12.45;100.00
12172;BME280;6149;52.418;13.668;2024-03-02T11:26:59;100314.94;;;12.53;100.00
12172;BME280;6149;52.418;13.668;2024-03-02T11:29:53;100320.06;;;12.56;100.00
12172;BME280;6149;52.418;13.668;2024-03-02T11:32:22;100324.91;;;12.49;100.00
12172;BME280;6149;52.418;13.668;2024-03-02T11:34:50;100322.16;;;12.51;100.00
12172;BME280;6149;52.418;13.668;2024-03-02T11:37:17;100325.94;;;12.47;100.00
12172;BME280;6149;52.418;13.668;2024-03-02T11:39:46;100316.66;;;12.54;100.00
12172;BME280;6149;52.418;13.668;2024-03-02T11:42:14;100315.78;;;12.53;100.00
12172;BME280;6149;52.418;13.668;2024-03-02T11:44:43;100314.44;;;12.60;100.00
12172;BME280;6149;52.418;13.668;2024-03-02T11:47:13;100319.56;;;12.76;100.00
12172;BME280;6149;52.418;13.668;2024-03-02T11:49:43;100323.16;;;12.75;100.00
12172;BME280;6149;52.418;13.668;2024-03-02T11:52:12;100319.38;;;12.79;100.00
12172;BME280;6149;52.418;13.668;2024-03-02T11:54:41;100322.66;;;12.83;100.00
12172;BME280;6149;52.418;13.668;2024-03-02T11:57:12;100321.63;;;12.85;100.00
12172;BME280;6149;52.418;13.668;2024-03-02T11:59:40;100316.44;;;12.96;100.00
12172;BME280;6149;52.418;13.668;2024-03-02T12:02:14;100311.03;;;13.11;100.00
12172;BME280;6149;52.418;13.668;2024-03-02T12:04:44;100313.94;;;13.20;100.00
12172;BME280;6149;52.418;13.668;2024-03-02T12:07:11;100310.75;;;13.28;100.00
12172;BME280;6149;52.418;13.668;2024-03-02T12:09:38;100311.06;;;13.23;100.00
12172;BME280;6149;52.418;13.668;2024-03-02T12:12:07;100307.34;;;13.38;100.00
12172;BME280;6149;52.418;13.668;2024-03-02T12:14:37;100303.97;;;13.36;100.00
12172;BME280;6149;52.418;13.668;2024-03-02T12:17:04;100309.78;;;13.54;100.00
12172;BME280;6149;52.418;13.668;2024-03-02T12:19:32;100309.38;;;13.48;100.00
12172;BME280;6149;52.418;13.668;2024-03-02T12:22:01;100296.63;;;13.53;100.00
12172;BME280;6149;52.418;13.668;2024-03-02T12:24:29;100296.59;;;13.65;100.00
12172;BME280;6149;52.418;13.668;2024-03-02T12:26:56;100298.84;;;13.71;100.00
12172;BME280;6149;52.418;13.668;2024-03-02T12:29:23;100303.41;;;13.69;100.00
12172;BME280;6149;52.418;13.668;2024-03-02T12:31:51;100296.19;;;13.71;100.00
12172;BME280;6149;52.418;13.668;2024-03-02T12:34:19;100300.91;;;13.92;100.00
12172;BME280;6149;52.418;13.668;2024-03-02T12:36:46;100298.66;;;13.98;100.00
12172;BME280;6149;52.418;13.668;2024-03-02T12:39:16;100303.22;;;13.96;100.00
12172;BME280;6149;52.418;13.668;2024-03-02T12:41:43;100293.88;;;13.91;100.00
12172;BME280;6149;52.418;13.668;2024-03-02T12:44:10;100288.97;;;13.97;100.00
12172;BME280;6149;52.418;13.668;2024-03-02T12:46:37;100292.78;;;14.06;100.00
12172;BME280;6149;52.418;13.668;2024-03-02T12:49:10;100286.13;;;14.24;100.00
12172;BME280;6149;52.418;13.668;2024-03-02T12:51:39;100293.47;;;14.21;100.00